Time;durP1;ratioP1;P1;durP2;ratioP2;P2;SDS_P1;SDS_P2;PMS_P1;PMS_P2;Temp;Humidity;BMP_temperature;BMP_pressure;BME280_temperature;BME280_humidity;BME280_pressure;Samples;Min_cycle;Max_cycle;Signal;HPM_P1;HPM_P2
2023/10/30 00:01:45;;;;;;;;;;;12.60;99.90;;;;;;5092239;28;20118;-77
2023/10/30 00:04:10;;;;;;;15.43;4.05;;;12.60;99.90;;;;;;5090624;28;19904;-78
2023/10/30 00:06:36;;;;;;;10.32;3.50;;;12.70;99.90;;;;;;5091916;28;20035;-77
2023/10/30 00:09:02;;;;;;;6.97;2.50;;;12.70;99.90;;;;;;5091737;28;20055;-77
2023/10/30 00:11:28;;;;;;;10.98;3.90;;;12.80;99.90;;;;;;5092139;28;20156;-77
2023/10/30 00:13:53;;;;;;;;;;;12.70;99.90;;;;;;5093746;28;20048;-77
2023/10/30 00:16:20;;;;;;;11.52;3.40;;;12.90;99.90;;;;;;5091984;28;19916;-77
2023/10/30 00:18:46;;;;;;;6.32;3.10;;;13.00;99.90;;;;;;5092238;28;20510;-77
2023/10/30 00:21:11;;;;;;;;;;;12.90;99.90;;;;;;5092045;28;20056;-78
2023/10/30 00:23:37;;;;;;;8.45;2.70;;;12.80;99.90;;;;;;5091419;28;19908;-78
2023/10/30 00:26:04;;;;;;;9.18;3.17;;;12.70;99.90;;;;;;5089546;28;20346;-77
2023/10/30 00:28:31;;;;;;;7.05;2.17;;;12.70;99.90;;;;;;5092184;28;20036;-78
2023/10/30 00:30:57;;;;;;;6.30;2.25;;;12.80;99.90;;;;;;5090491;28;20561;-78
2023/10/30 00:33:23;;;;;;;7.05;1.60;;;12.70;99.90;;;;;;5091443;28;20047;-79
2023/10/30 00:35:48;;;;;;;;;;;12.80;99.90;;;;;;5091453;28;20073;-79
2023/10/30 00:38:14;;;;;;;6.63;1.42;;;12.80;99.90;;;;;;5089217;28;19943;-78
2023/10/30 00:40:39;;;;;;;3.72;1.00;;;12.70;99.90;;;;;;5091309;28;20032;-79
2023/10/30 00:43:05;;;;;;;4.88;1.40;;;12.70;99.90;;;;;;5089873;28;20030;-78
2023/10/30 00:45:31;;;;;;;;;;;12.80;99.90;;;;;;5090303;28;20119;-79
2023/10/30 00:47:57;;;;;;;6.82;1.40;;;12.70;99.90;;;;;;5089848;28;19904;-79
2023/10/30 00:50:23;;;;;;;7.03;1.73;;;12.70;99.90;;;;;;5088964;28;20056;-78
2023/10/30 00:52:49;;;;;;;;;;;12.80;99.90;;;;;;5091157;28;20463;-78
2023/10/30 00:55:14;;;;;;;7.35;1.50;;;12.70;99.90;;;;;;5090643;28;20010;-78
2023/10/30 00:57:40;;;;;;;;;;;12.70;99.90;;;;;;5089925;28;20032;-78
2023/10/30 01:00:06;;;;;;;6.60;1.63;;;12.60;99.90;;;;;;5089666;28;20399;-77
2023/10/30 01:02:32;;;;;;;5.63;1.67;;;12.60;99.90;;;;;;5089472;28;20067;-76
2023/10/30 01:04:57;;;;;;;;;;;12.60;99.90;;;;;;5091128;28;20052;-78
2023/10/30 01:07:24;;;;;;;9.65;1.65;;;12.60;99.90;;;;;;5089243;28;19908;-77
2023/10/30 01:09:49;;;;;;;8.43;1.33;;;12.50;99.90;;;;;;5089368;28;20024;-77
2023/10/30 01:12:15;;;;;;;;;;;12.60;99.90;;;;;;5090831;28;20117;-76
2023/10/30 01:14:41;;;;;;;8.00;1.50;;;12.70;99.90;;;;;;5090520;28;19922;-76
2023/10/30 01:17:07;;;;;;;9.05;1.17;;;12.70;99.90;;;;;;5089132;28;20033;-77
2023/10/30 01:19:32;;;;;;;;;;;12.70;99.90;;;;;;5089299;28;20169;-77
2023/10/30 01:21:59;;;;;;;8.93;1.55;;;12.60;99.90;;;;;;5089181;28;19908;-76
2023/10/30 01:24:24;;;;;;;6.18;1.30;;;12.70;99.90;;;;;;5090514;28;20024;-77
2023/10/30 01:26:50;;;;;;;;;;;12.70;99.90;;;;;;5090946;28;20024;-76
2023/10/30 01:29:16;;;;;;;9.18;1.25;;;12.60;99.90;;;;;;5090475;28;20341;-77
2023/10/30 01:31:42;;;;;;;;;;;12.60;99.90;;;;;;5090722;28;20035;-76
2023/10/30 01:34:07;;;;;;;3.95;1.40;;;12.60;99.90;;;;;;5090770;28;20428;-78
2023/10/30 01:36:33;;;;;;;9.25;1.38;;;12.60;99.90;;;;;;5090581;28;20051;-79
2023/10/30 01:38:59;;;;;;;6.10;1.13;;;12.60;99.90;;;;;;5090741;28;20048;-78
2023/10/30 01:41:25;;;;;;;5.68;1.00;;;12.60;99.90;;;;;;5090545;28;20503;-78
2023/10/30 01:43:50;;;;;;;6.47;2.22;;;12.60;99.90;;;;;;5090276;28;20036;-78
2023/10/30 01:46:16;;;;;;;7.88;1.30;;;12.60;99.90;;;;;;5088501;28;20101;-77
2023/10/30 01:48:42;;;;;;;6.82;1.20;;;12.70;99.90;;;;;;5088822;28;20044;-78
2023/10/30 01:51:09;;;;;;;4.80;0.95;;;12.60;99.90;;;;;;5090112;28;20050;-79
2023/10/30 01:53:37;;;;;;;10.10;2.05;;;12.60;99.90;;;;;;5090191;28;20020;-79
2023/10/30 01:56:04;;;;;;;7.28;1.30;;;12.60;99.90;;;;;;5091397;28;20135;-79
2023/10/30 01:58:30;;;;;;;5.43;1.10;;;12.70;99.90;;;;;;5072455;28;20048;-80
2023/10/30 02:01:00;;;;;;;8.57;1.95;;;12.60;99.90;;;;;;5088886;28;20028;-78
2023/10/30 02:03:26;;;;;;;6.38;1.73;;;12.50;99.90;;;;;;5089016;28;20021;-79
2023/10/30 02:05:54;;;;;;;4.72;1.58;;;12.60;99.90;;;;;;5089468;28;20127;-79
2023/10/30 02:08:20;;;;;;;8.43;1.30;;;12.70;99.90;;;;;;5093663;28;20028;-78
2023/10/30 02:10:46;;;;;;;5.38;1.13;;;12.70;99.90;;;;;;5072613;28;20036;-80
2023/10/30 02:13:11;;;;;;;;;;;12.60;99.90;;;;;;5090376;28;20036;-80
2023/10/30 02:15:37;;;;;;;6.30;1.30;;;12.60;99.90;;;;;;5087962;28;20380;-79
2023/10/30 02:18:03;;;;;;;;;;;12.60;99.90;;;;;;5089140;28;20024;-79
2023/10/30 02:20:29;;;;;;;6.03;1.60;;;12.50;99.90;;;;;;5088633;28;20134;-79
2023/10/30 02:22:54;;;;;;;;;;;12.60;99.90;;;;;;5089543;28;20525;-79
2023/10/30 02:25:22;;;;;;;5.30;1.00;;;12.60;99.90;;;;;;5089846;28;19905;-79
2023/10/30 02:27:49;;;;;;;6.20;1.77;;;12.50;99.90;;;;;;5088614;28;20102;-79
2023/10/30 02:30:15;;;;;;;5.18;1.05;;;12.40;99.90;;;;;;5088324;28;20024;-80
2023/10/30 02:32:42;;;;;;;;;;;12.30;99.90;;;;;;5090265;28;20039;-79
2023/10/30 02:35:12;;;;;;;5.20;1.00;;;12.40;99.90;;;;;;5088680;28;19926;-80
2023/10/30 02:37:37;;;;;;;5.03;1.40;;;12.40;99.90;;;;;;5088693;28;20091;-78
2023/10/30 02:40:03;;;;;;;;;;;12.40;99.90;;;;;;5088770;28;20032;-79
2023/10/30 02:42:29;;;;;;;5.65;1.13;;;12.50;99.90;;;;;;5089554;28;20029;-77
2023/10/30 02:44:54;;;;;;;;;;;12.50;99.90;;;;;;5090487;28;20542;-79
2023/10/30 02:47:20;;;;;;;5.95;1.00;;;12.40;99.90;;;;;;5088574;28;19908;-79
2023/10/30 02:49:46;;;;;;;4.63;1.00;;;12.40;99.90;;;;;;5088360;28;20125;-79
2023/10/30 02:52:11;;;;;;;8.55;1.40;;;12.40;99.90;;;;;;5087716;28;20059;-79
2023/10/30 02:54:37;;;;;;;;;;;12.40;99.90;;;;;;5090009;28;20030;-79
2023/10/30 02:57:03;;;;;;;8.02;1.45;;;12.40;99.90;;;;;;5089375;28;19916;-79
2023/10/30 02:59:28;;;;;;;;;;;12.40;99.90;;;;;;5090341;28;20027;-78
2023/10/30 03:01:54;;;;;;;8.18;1.13;;;12.50;99.90;;;;;;5089963;28;19908;-79
2023/10/30 03:04:19;;;;;;;;;;;12.40;99.90;;;;;;5088851;28;20118;-78
2023/10/30 03:06:45;;;;;;;8.18;1.25;;;12.40;99.90;;;;;;5088211;28;19915;-78
2023/10/30 03:09:11;;;;;;;;;;;12.50;99.90;;;;;;5091755;28;20086;-78
2023/10/30 03:11:36;;;;;;;9.48;1.30;;;12.50;99.90;;;;;;5089749;28;19919;-76
2023/10/30 03:14:02;;;;;;;;;;;12.50;99.90;;;;;;5089807;28;20761;-77
2023/10/30 03:16:28;;;;;;;7.00;1.02;;;12.50;99.90;;;;;;5091531;28;19919;-77
2023/10/30 03:18:53;;;;;;;5.85;1.00;;;12.60;99.90;;;;;;5091672;28;20030;-76
2023/10/30 03:21:19;;;;;;;;;;;12.50;99.90;;;;;;5094519;28;20063;-77
2023/10/30 03:23:44;;;;;;;6.35;1.58;;;12.60;99.90;;;;;;5093948;28;19951;-77
2023/10/30 03:26:10;;;;;;;10.98;1.70;;;12.70;99.90;;;;;;5096524;28;20027;-78
2023/10/30 03:28:36;;;;;;;;;;;12.60;99.90;;;;;;5095704;28;20024;-78
2023/10/30 03:31:07;;;;;;;8.77;1.30;;;12.60;99.90;;;;;;5093298;28;19908;-77
2023/10/30 03:33:33;;;;;;;8.15;1.00;;;12.50;99.90;;;;;;5091212;28;20028;-78
2023/10/30 03:35:59;;;;;;;;;;;12.50;99.90;;;;;;5090940;28;20039;-77
2023/10/30 03:38:24;;;;;;;10.77;1.80;;;12.60;99.90;;;;;;5076130;28;20349;-77
2023/10/30 03:40:50;;;;;;;4.47;1.30;;;12.50;99.90;;;;;;5082133;28;20028;-79
2023/10/30 03:43:16;;;;;;;6.18;1.67;;;12.40;99.90;;;;;;5078458;28;20032;-78
2023/10/30 03:45:41;;;;;;;;;;;12.50;99.90;;;;;;5071443;28;20020;-78
2023/10/30 03:48:07;;;;;;;10.65;2.17;;;12.60;99.90;;;;;;5105160;28;20365;-77
2023/10/30 03:50:32;;;;;;;9.85;1.35;;;12.50;99.90;;;;;;5071197;28;20370;-76
2023/10/30 03:52:58;;;;;;;3.30;1.58;;;12.60;99.90;;;;;;5070730;28;20121;-77
2023/10/30 03:55:23;;;;;;;;;;;12.60;99.90;;;;;;5088445;28;20787;-78
2023/10/30 03:57:49;;;;;;;5.45;1.42;;;12.60;99.90;;;;;;5071398;28;19916;-77
2023/10/30 04:00:15;;;;;;;;;;;12.60;99.90;;;;;;5076906;28;20028;-77
2023/10/30 04:02:40;;;;;;;11.10;1.58;;;12.70;99.90;;;;;;5079085;28;20417;-77
2023/10/30 04:05:07;;;;;;;6.57;1.33;;;12.60;99.90;;;;;;5091558;28;20511;-77
2023/10/30 04:07:33;;;;;;;6.82;1.10;;;12.60;99.90;;;;;;5093912;28;20078;-77
2023/10/30 04:09:58;;;;;;;;;;;12.60;99.90;;;;;;5094134;28;20024;-76
2023/10/30 04:12:24;;;;;;;4.82;1.33;;;12.70;99.90;;;;;;5092233;28;19926;-78
2023/10/30 04:14:51;;;;;;;;;;;12.60;99.90;;;;;;5093404;28;20032;-77
2023/10/30 04:17:17;;;;;;;4.43;0.95;;;12.60;99.90;;;;;;5092700;28;20414;-78
2023/10/30 04:19:42;;;;;;;5.75;1.33;;;12.60;99.90;;;;;;5080314;28;20032;-77
2023/10/30 04:22:08;;;;;;;;;;;12.50;99.90;;;;;;5076316;28;20075;-77
2023/10/30 04:24:34;;;;;;;12.48;1.73;;;12.50;99.90;;;;;;5074508;28;19947;-78
2023/10/30 04:26:59;;;;;;;7.50;1.40;;;12.50;99.90;;;;;;5071598;28;20557;-79
2023/10/30 04:29:26;;;;;;;;;;;12.50;99.90;;;;;;5071852;28;20036;-78
2023/10/30 04:31:51;;;;;;;5.10;1.17;;;12.40;99.90;;;;;;5070467;28;19931;-80
2023/10/30 04:34:18;;;;;;;;;;;12.50;99.90;;;;;;5071718;28;20389;-79
2023/10/30 04:36:44;;;;;;;9.13;1.77;;;12.40;99.90;;;;;;5070841;28;19916;-77
2023/10/30 04:39:10;;;;;;;2.92;0.75;;;12.30;99.90;;;;;;5085586;28;20043;-81
2023/10/30 04:41:36;;;;;;;3.65;0.90;;;12.30;99.90;;;;;;5090240;28;20033;-79
2023/10/30 04:44:02;;;;;;;;;;;12.20;99.90;;;;;;5090547;28;20226;-78
2023/10/30 04:46:28;;;;;;;9.32;1.20;;;12.30;99.90;;;;;;5082241;28;20004;-77
2023/10/30 04:48:53;;;;;;;10.45;1.25;;;12.30;99.90;;;;;;5074630;28;20020;-78
2023/10/30 04:51:19;;;;;;;4.97;1.35;;;12.40;99.90;;;;;;5073408;28;20096;-79
2023/10/30 04:53:45;;;;;;;3.35;0.98;;;12.40;99.90;;;;;;5073060;28;20016;-78
2023/10/30 04:56:10;;;;;;;6.10;1.08;;;12.40;99.90;;;;;;5087244;28;20036;-79
2023/10/30 04:58:36;;;;;;;8.25;2.38;;;12.40;99.90;;;;;;5091537;28;20028;-79
2023/10/30 05:01:08;;;;;;;;;;;12.40;99.90;;;;;;5092068;28;20020;-78
2023/10/30 05:03:33;;;;;;;9.32;1.50;;;12.40;99.90;;;;;;5100168;28;19904;-77
2023/10/30 05:06:01;;;;;;;;;;;12.50;99.90;;;;;;5106642;28;20053;-78
2023/10/30 05:08:26;;;;;;;5.35;1.40;;;12.50;99.90;;;;;;5095049;28;19990;-78
2023/10/30 05:10:52;;;;;;;;;;;12.40;99.90;;;;;;5094683;28;20055;-77
2023/10/30 05:13:18;;;;;;;10.43;1.50;;;12.50;99.90;;;;;;5093451;28;20009;-77
2023/10/30 05:15:43;;;;;;;;;;;12.50;99.90;;;;;;5093936;28;20024;-78
2023/10/30 05:18:09;;;;;;;11.95;1.23;;;12.50;99.90;;;;;;5094605;28;20053;-78
2023/10/30 05:20:34;;;;;;;;;;;12.50;99.90;;;;;;5093656;28;20030;-77
2023/10/30 05:23:00;;;;;;;5.75;1.60;;;12.60;99.90;;;;;;5090833;28;20398;-77
2023/10/30 05:25:26;;;;;;;;;;;12.60;99.90;;;;;;5091559;28;20085;-77
2023/10/30 05:27:51;;;;;;;5.80;1.63;;;12.60;99.90;;;;;;5089506;28;19911;-77
2023/10/30 05:30:17;;;;;;;;;;;12.50;99.90;;;;;;5090459;28;20031;-77
2023/10/30 05:32:43;;;;;;;12.25;1.75;;;12.50;99.90;;;;;;5090075;28;19978;-76
2023/10/30 05:35:08;;;;;;;;;;;12.50;99.90;;;;;;5090941;28;20036;-78
2023/10/30 05:37:34;;;;;;;8.07;1.38;;;12.50;99.90;;;;;;5093145;28;20338;-79
2023/10/30 05:40:00;;;;;;;7.55;2.05;;;12.40;99.90;;;;;;5091674;28;20035;-79
2023/10/30 05:42:25;;;;;;;;;;;12.50;99.90;;;;;;5089374;28;20040;-79
2023/10/30 05:44:51;;;;;;;6.80;1.35;;;12.40;99.90;;;;;;5090296;28;19904;-80
2023/10/30 05:47:16;;;;;;;;;;;12.40;99.90;;;;;;5089059;28;20024;-77
2023/10/30 05:49:42;;;;;;;5.10;1.13;;;12.40;99.90;;;;;;5089179;28;19908;-77
2023/10/30 05:52:09;;;;;;;;;;;12.50;99.90;;;;;;5089773;28;20036;-79
2023/10/30 05:54:35;;;;;;;6.63;1.35;;;12.40;99.90;;;;;;5090129;28;19904;-77
2023/10/30 05:57:01;;;;;;;3.85;1.10;;;12.50;99.90;;;;;;5087766;28;20598;-77
2023/10/30 05:59:26;;;;;;;;;;;12.50;99.90;;;;;;5090143;28;20114;-77
2023/10/30 06:01:52;;;;;;;4.15;1.88;;;12.40;99.90;;;;;;5088036;28;20402;-77
2023/10/30 06:04:18;;;;;;;7.47;1.40;;;12.40;99.90;;;;;;5089716;28;20451;-77
2023/10/30 06:06:43;;;;;;;5.68;1.10;;;12.40;99.90;;;;;;5088085;28;20028;-79
2023/10/30 06:09:09;;;;;;;;;;;12.50;99.90;;;;;;5090048;28;20480;-77
2023/10/30 06:11:34;;;;;;;4.25;1.30;;;12.40;99.90;;;;;;5088881;28;19912;-77
2023/10/30 06:14:00;;;;;;;;;;;12.30;99.90;;;;;;5089802;28;20043;-77
2023/10/30 06:16:26;;;;;;;6.10;1.92;;;12.30;99.90;;;;;;5084046;28;20014;-76
2023/10/30 06:18:52;;;;;;;9.43;1.98;;;12.50;99.90;;;;;;5069208;28;20150;-77
2023/10/30 06:21:18;;;;;;;;;;;12.50;99.90;;;;;;5070083;28;20128;-77
2023/10/30 06:23:44;;;;;;;10.05;1.63;;;12.50;99.90;;;;;;5069524;28;19942;-77
2023/10/30 06:26:12;;;;;;;6.55;1.05;;;12.70;99.90;;;;;;5069641;28;20024;-76
2023/10/30 06:28:39;;;;;;;5.47;1.40;;;12.90;99.90;;;;;;5069635;28;20069;-77
2023/10/30 06:31:15;;;;;;;5.43;1.30;;;12.90;99.90;;;;;;5067953;28;20443;-76
2023/10/30 06:33:41;;;;;;;3.20;1.30;;;12.90;99.90;;;;;;5069206;28;20032;-76
2023/10/30 06:36:07;;;;;;;4.45;1.35;;;13.10;99.90;;;;;;5069172;28;20443;-77
2023/10/30 06:38:33;;;;;;;;;;;13.10;99.90;;;;;;5068412;28;20036;-77
2023/10/30 06:40:59;;;;;;;10.98;1.83;;;13.10;99.90;;;;;;5069831;28;19909;-77
2023/10/30 06:43:25;;;;;;;5.85;1.30;;;13.30;99.90;;;;;;5067897;28;20024;-77
2023/10/30 06:46:04;;;;;;;4.07;1.85;;;13.30;99.90;;;;;;5067732;28;20032;-77
2023/10/30 06:48:30;;;;;;;10.88;2.03;;;13.50;99.90;;;;;;5069701;28;20029;-77
2023/10/30 06:50:57;;;;;;;8.30;2.40;;;13.70;99.90;;;;;;5072869;28;20029;-76
2023/10/30 06:53:23;;;;;;;5.93;1.25;;;14.10;99.90;;;;;;5073039;28;20035;-77
2023/10/30 06:55:49;;;;;;;5.88;0.85;;;14.40;99.90;;;;;;5072789;28;20033;-77
2023/10/30 06:58:16;;;;;;;15.77;2.40;;;14.70;99.90;;;;;;5071719;28;20567;-77
2023/10/30 07:00:42;;;;;;;9.98;0.77;;;15.00;99.90;;;;;;5088921;28;20093;-76
2023/10/30 07:03:08;;;;;;;5.82;1.17;;;15.10;99.90;;;;;;5093106;28;20078;-77
2023/10/30 07:05:34;;;;;;;7.50;1.40;;;15.30;99.90;;;;;;5092938;28;20043;-77
2023/10/30 07:07:59;;;;;;;6.28;1.50;;;15.30;99.90;;;;;;5093057;28;20028;-76
2023/10/30 07:10:25;;;;;;;6.60;1.23;;;15.40;99.90;;;;;;5090285;28;20036;-77
2023/10/30 07:12:50;;;;;;;6.90;1.02;;;15.60;99.90;;;;;;5085235;28;20110;-76
2023/10/30 07:15:16;;;;;;;3.85;0.82;;;15.70;99.90;;;;;;5091305;28;20020;-77
2023/10/30 07:17:42;;;;;;;11.23;1.48;;;15.70;99.90;;;;;;5092481;28;20040;-76
2023/10/30 07:20:08;;;;;;;7.57;1.25;;;15.90;99.90;;;;;;5092273;28;20039;-78
2023/10/30 07:22:34;;;;;;;5.30;1.10;;;16.10;99.90;;;;;;5090217;28;20028;-78
2023/10/30 07:25:00;;;;;;;5.68;1.40;;;16.10;99.90;;;;;;5089262;28;20081;-77
2023/10/30 07:27:26;;;;;;;5.25;1.02;;;16.10;99.90;;;;;;5090657;28;20034;-78
2023/10/30 07:29:52;;;;;;;7.65;0.82;;;16.10;99.90;;;;;;5090831;28;20016;-78
2023/10/30 07:32:18;;;;;;;4.05;1.17;;;16.10;99.90;;;;;;5091426;28;20477;-77
2023/10/30 07:34:44;;;;;;;6.35;1.50;;;16.20;99.90;;;;;;5092158;28;20055;-79
2023/10/30 07:37:10;;;;;;;6.97;1.90;;;16.30;99.90;;;;;;5087723;28;20043;-77
2023/10/30 07:39:36;;;;;;;3.63;1.60;;;16.30;99.90;;;;;;5091488;28;20028;-78
2023/10/30 07:42:01;;;;;;;5.60;1.38;;;16.40;99.90;;;;;;5092399;28;20413;-77
2023/10/30 07:44:27;;;;;;;4.35;1.20;;;16.50;99.90;;;;;;5091585;28;20037;-77
2023/10/30 07:46:53;;;;;;;3.53;0.93;;;16.60;99.90;;;;;;5091151;28;20036;-76
2023/10/30 07:49:19;;;;;;;3.63;0.88;;;16.80;99.90;;;;;;5090830;28;20028;-76
2023/10/30 07:51:45;;;;;;;2.25;0.90;;;17.10;99.90;;;;;;5090853;28;20024;-76
2023/10/30 07:54:11;;;;;;;4.68;1.05;;;17.30;99.90;;;;;;5090714;28;20028;-77
2023/10/30 07:56:37;;;;;;;5.05;0.70;;;17.40;99.90;;;;;;5090636;28;20484;-76
2023/10/30 07:59:06;;;;;;;2.30;0.70;;;17.50;99.90;;;;;;5090388;28;20078;-77
2023/10/30 08:01:32;;;;;;;3.88;1.10;;;17.50;99.90;;;;;;5091839;28;20756;-76
2023/10/30 08:03:59;;;;;;;4.15;0.80;;;17.50;99.90;;;;;;5091708;28;20024;-77
2023/10/30 08:06:25;;;;;;;5.80;1.25;;;17.50;99.90;;;;;;5090191;28;20031;-77
2023/10/30 08:08:52;;;;;;;10.95;1.05;;;17.50;99.90;;;;;;5090379;28;20016;-78
2023/10/30 08:11:17;;;;;;;3.00;0.88;;;17.60;99.90;;;;;;5091593;28;20100;-77
2023/10/30 08:13:43;;;;;;;4.35;1.08;;;17.80;99.90;;;;;;5091471;28;20102;-77
2023/10/30 08:16:10;;;;;;;2.35;0.43;;;17.90;99.90;;;;;;5091791;28;20102;-77
2023/10/30 08:18:36;;;;;;;2.58;0.50;;;18.10;99.90;;;;;;5091678;28;20032;-77
2023/10/30 08:21:02;;;;;;;5.25;0.90;;;18.20;99.90;;;;;;5090364;28;20020;-76
2023/10/30 08:23:28;;;;;;;4.97;0.77;;;18.20;99.90;;;;;;5090084;28;20429;-76
2023/10/30 08:25:53;;;;;;;2.60;0.60;;;18.20;99.90;;;;;;5091370;28;20028;-77
2023/10/30 08:28:19;;;;;;;6.03;0.70;;;18.30;99.40;;;;;;5091568;28;20035;-76
2023/10/30 08:30:45;;;;;;;2.95;0.80;;;18.40;98.70;;;;;;5091951;28;20103;-77
2023/10/30 08:33:10;;;;;;;3.08;0.70;;;18.50;98.40;;;;;;5091461;28;20055;-77
2023/10/30 08:35:36;;;;;;;1.92;0.57;;;18.70;98.30;;;;;;5090059;28;20104;-75
2023/10/30 08:38:04;;;;;;;3.10;0.82;;;18.90;97.80;;;;;;5092054;28;20039;-77
2023/10/30 08:40:29;;;;;;;4.20;1.02;;;19.00;96.70;;;;;;5091333;28;20016;-77
2023/10/30 08:42:55;;;;;;;3.90;0.60;;;19.30;95.70;;;;;;5089452;28;20031;-77
2023/10/30 08:45:22;;;;;;;4.28;0.60;;;19.70;95.30;;;;;;5089798;28;20059;-77
2023/10/30 08:47:48;;;;;;;3.45;0.75;;;20.30;93.10;;;;;;5089676;28;20085;-77
2023/10/30 08:50:13;;;;;;;7.45;1.83;;;20.90;87.80;;;;;;5089657;28;20055;-77
2023/10/30 08:52:40;;;;;;;3.60;1.42;;;21.50;85.20;;;;;;5090906;28;20078;-77
2023/10/30 08:55:06;;;;;;;5.50;1.08;;;22.20;82.00;;;;;;5090864;28;20020;-77
2023/10/30 08:57:31;;;;;;;2.33;0.80;;;22.50;78.30;;;;;;5089450;28;20078;-76
2023/10/30 08:59:57;;;;;;;4.68;0.90;;;22.40;76.90;;;;;;5089256;28;20055;-76
2023/10/30 09:02:23;;;;;;;4.00;1.52;;;22.10;78.30;;;;;;5090736;28;20030;-76
2023/10/30 09:04:48;;;;;;;4.35;1.00;;;21.70;78.40;;;;;;5089669;28;20031;-77
2023/10/30 09:07:14;;;;;;;5.78;1.10;;;21.50;79.90;;;;;;5089273;28;20127;-76
2023/10/30 09:09:40;;;;;;;8.45;0.82;;;21.20;79.10;;;;;;5089382;28;20036;-77
2023/10/30 09:12:06;;;;;;;6.28;1.00;;;21.00;79.60;;;;;;5088508;28;20142;-77
2023/10/30 09:14:32;;;;;;;7.28;1.30;;;20.70;81.50;;;;;;5090667;28;20066;-77
2023/10/30 09:16:58;;;;;;;5.03;0.93;;;20.60;83.50;;;;;;5089309;28;20484;-78
2023/10/30 09:19:23;;;;;;;5.93;1.33;;;20.50;81.30;;;;;;5089194;28;20753;-77
2023/10/30 09:21:49;;;;;;;8.15;1.08;;;20.30;83.30;;;;;;5090565;28;20482;-78
2023/10/30 09:24:15;;;;;;;3.90;1.10;;;20.30;85.40;;;;;;5089233;28;20027;-77
2023/10/30 09:26:41;;;;;;;3.47;1.15;;;20.10;87.20;;;;;;5088939;28;20028;-77
2023/10/30 09:29:06;;;;;;;4.85;1.27;;;20.00;89.30;;;;;;5089086;28;20031;-76
2023/10/30 09:31:33;;;;;;;4.88;1.38;;;20.10;85.20;;;;;;5089066;28;20526;-77
2023/10/30 09:33:59;;;;;;;5.75;1.33;;;20.00;86.70;;;;;;5088958;28;20024;-77
2023/10/30 09:36:25;;;;;;;4.57;1.30;;;20.00;85.50;;;;;;5088959;28;20039;-76
2023/10/30 09:38:53;;;;;;;6.10;0.88;;;20.00;86.60;;;;;;5089978;28;20036;-77
2023/10/30 09:41:19;;;;;;;6.32;1.13;;;20.00;89.00;;;;;;5090084;28;20024;-77
2023/10/30 09:43:49;;;;;;;5.05;0.95;;;20.20;87.50;;;;;;5089833;28;20038;-76
2023/10/30 09:46:16;;;;;;;3.38;1.02;;;20.20;86.00;;;;;;5090204;28;20032;-77
2023/10/30 09:48:44;;;;;;;4.65;1.17;;;20.20;87.10;;;;;;5088820;28;20046;-76
2023/10/30 09:51:11;;;;;;;6.60;1.02;;;20.10;87.20;;;;;;5088744;28;20126;-76
2023/10/30 09:53:38;;;;;;;5.35;0.75;;;20.10;86.30;;;;;;5088617;28;20032;-77
2023/10/30 09:56:06;;;;;;;8.48;0.90;;;20.00;89.10;;;;;;5089960;28;20173;-77
2023/10/30 09:58:32;;;;;;;7.93;2.33;;;19.90;88.80;;;;;;5088675;28;20023;-77
2023/10/30 10:00:59;;;;;;;4.22;1.02;;;19.90;89.90;;;;;;5090068;28;20158;-76
2023/10/30 10:03:25;;;;;;;3.67;1.00;;;19.80;90.20;;;;;;5088527;28;20024;-77
2023/10/30 10:05:58;;;;;;;4.35;1.02;;;19.90;90.60;;;;;;5088392;28;20020;-76
2023/10/30 10:08:24;;;;;;;3.55;0.70;;;19.80;90.30;;;;;;5089728;28;20403;-77
2023/10/30 10:10:54;;;;;;;5.10;0.82;;;20.00;87.90;;;;;;5089669;28;20028;-75
2023/10/30 10:13:20;;;;;;;5.65;1.17;;;19.80;88.70;;;;;;5088374;28;20415;-76
2023/10/30 10:15:46;;;;;;;6.45;0.75;;;19.80;90.30;;;;;;5089607;28;20092;-76
2023/10/30 10:18:28;;;;;;;5.47;1.00;;;19.60;90.50;;;;;;5088308;28;20036;-77
2023/10/30 10:21:11;;;;;;;1.73;0.70;;;19.60;91.20;;;;;;5089645;28;20032;-77
2023/10/30 10:23:38;;;;;;;6.47;1.15;;;19.60;91.80;;;;;;5089061;28;20032;-77
2023/10/30 10:26:06;;;;;;;5.35;1.02;;;19.50;91.60;;;;;;5094113;28;20036;-77
2023/10/30 10:28:33;;;;;;;3.22;1.00;;;19.60;92.10;;;;;;5092439;28;20396;-76
2023/10/30 10:30:59;;;;;;;3.50;1.23;;;19.60;91.50;;;;;;5092291;28;20119;-77
2023/10/30 10:33:30;;;;;;;4.32;1.00;;;19.60;91.80;;;;;;5093620;28;20020;-77
2023/10/30 10:35:57;;;;;;;3.00;0.80;;;19.70;92.20;;;;;;5092296;28;20036;-77
2023/10/30 10:38:24;;;;;;;4.47;0.80;;;19.70;92.70;;;;;;5093627;28;20028;-77
2023/10/30 10:40:50;;;;;;;5.13;1.00;;;19.80;92.90;;;;;;5093628;28;20027;-76
2023/10/30 10:43:21;;;;;;;3.10;0.70;;;19.80;91.10;;;;;;5092186;28;20028;-77
2023/10/30 10:45:48;;;;;;;3.72;0.80;;;20.00;91.30;;;;;;5093470;28;20032;-76
2023/10/30 10:48:15;;;;;;;2.70;0.88;;;20.10;91.70;;;;;;5093489;28;20040;-77
2023/10/30 10:50:41;;;;;;;5.55;1.27;;;20.20;91.90;;;;;;5093523;28;20012;-77
2023/10/30 10:53:08;;;;;;;4.63;0.88;;;20.20;92.30;;;;;;5092053;28;20028;-76
2023/10/30 10:55:49;;;;;;;5.72;1.35;;;20.30;93.00;;;;;;5091837;28;20500;-77
2023/10/30 10:58:34;;;;;;;7.50;0.80;;;20.40;92.40;;;;;;5093187;28;20607;-77
2023/10/30 11:01:04;;;;;;;8.93;0.70;;;20.40;92.30;;;;;;5091825;28;20032;-76
2023/10/30 11:03:30;;;;;;;3.70;0.90;;;20.50;92.30;;;;;;5093040;28;20027;-77
2023/10/30 11:05:57;;;;;;;6.00;0.90;;;20.60;91.90;;;;;;5091722;28;20135;-77
2023/10/30 11:08:48;;;;;;;4.20;0.80;;;20.60;91.90;;;;;;5093046;28;20066;-78
2023/10/30 11:11:32;;;;;;;3.97;1.02;;;20.70;92.60;;;;;;5092782;28;20043;-76
2023/10/30 11:14:11;;;;;;;4.57;0.85;;;20.70;92.80;;;;;;5092904;28;20028;-77
2023/10/30 11:16:48;;;;;;;3.70;0.60;;;20.70;92.60;;;;;;5091440;28;20051;-78
2023/10/30 11:19:21;;;;;;;8.23;0.95;;;20.60;91.80;;;;;;5091353;28;20030;-75
2023/10/30 11:21:50;;;;;;;4.05;0.80;;;20.70;91.50;;;;;;5092687;28;20039;-76
2023/10/30 11:24:54;;;;;;;2.65;0.40;;;20.60;92.90;;;;;;5092651;28;20170;-76
2023/10/30 11:27:25;;;;;;;8.18;0.82;;;20.50;92.50;;;;;;5069657;28;20028;-77
2023/10/30 11:29:54;;;;;;;3.67;0.70;;;20.40;92.90;;;;;;5053102;28;20025;-77
2023/10/30 11:32:20;;;;;;;3.35;0.85;;;20.40;93.50;;;;;;5081783;28;20040;-75
2023/10/30 11:34:46;;;;;;;1.90;0.52;;;20.30;93.80;;;;;;5091959;28;20028;-76
2023/10/30 11:37:15;;;;;;;2.53;0.63;;;20.40;92.50;;;;;;5092395;28;20039;-76
2023/10/30 11:39:45;;;;;;;4.88;0.60;;;20.30;92.40;;;;;;5091394;28;20024;-77
2023/10/30 11:42:29;;;;;;;4.30;0.65;;;20.30;92.60;;;;;;5092342;28;20028;-75
2023/10/30 11:45:24;;;;;;;6.47;1.02;;;20.30;93.20;;;;;;5091080;28;20488;-75
2023/10/30 11:47:57;;;;;;;3.13;0.50;;;20.30;93.80;;;;;;5092278;28;20024;-74
2023/10/30 11:50:36;;;;;;;5.53;0.70;;;20.40;93.50;;;;;;5092268;28;20035;-75
2023/10/30 11:53:16;;;;;;;7.43;0.73;;;20.40;93.60;;;;;;5092154;28;20032;-76
2023/10/30 11:55:42;;;;;;;8.50;1.00;;;20.50;93.60;;;;;;5092076;28;20085;-76
2023/10/30 11:58:10;;;;;;;4.45;0.50;;;20.50;94.10;;;;;;5091962;28;20031;-76
2023/10/30 12:00:44;;;;;;;3.70;0.60;;;20.40;93.00;;;;;;5091921;28;20024;-75
2023/10/30 12:03:10;;;;;;;6.57;0.70;;;20.50;93.30;;;;;;5091966;28;20028;-76
2023/10/30 12:05:36;;;;;;;2.70;0.70;;;20.50;93.50;;;;;;5091866;28;20024;-77
2023/10/30 12:08:03;;;;;;;5.63;0.45;;;20.50;93.90;;;;;;5091824;28;20442;-76
2023/10/30 12:10:29;;;;;;;5.15;1.13;;;20.60;94.00;;;;;;5090516;28;20032;-76
2023/10/30 12:12:55;;;;;;;4.63;0.50;;;20.70;94.50;;;;;;5090267;28;20058;-76
2023/10/30 12:15:20;;;;;;;2.90;0.60;;;20.90;93.60;;;;;;5090317;28;20127;-76
2023/10/30 12:17:46;;;;;;;6.35;0.90;;;20.90;93.50;;;;;;5090506;28;20134;-77
2023/10/30 12:20:12;;;;;;;3.70;0.65;;;21.00;93.40;;;;;;5090393;28;20016;-76
2023/10/30 12:22:41;;;;;;;2.47;0.45;;;21.10;92.90;;;;;;5090285;28;20557;-76
2023/10/30 12:25:09;;;;;;;6.25;0.90;;;21.10;91.90;;;;;;5090236;28;20024;-76
2023/10/30 12:27:34;;;;;;;4.50;0.52;;;21.10;91.40;;;;;;5090206;28;20028;-76
2023/10/30 12:30:11;;;;;;;4.53;0.80;;;21.20;91.10;;;;;;5089893;28;20458;-76
2023/10/30 12:32:37;;;;;;;3.65;0.50;;;21.20;90.50;;;;;;5090992;28;20569;-76
2023/10/30 12:35:16;;;;;;;4.10;0.60;;;21.10;90.70;;;;;;5091384;28;20115;-75
2023/10/30 12:37:42;;;;;;;2.28;0.57;;;21.10;91.00;;;;;;5089854;28;20122;-76
2023/10/30 12:40:14;;;;;;;4.03;0.60;;;21.00;90.70;;;;;;5089727;28;20115;-76
2023/10/30 12:42:42;;;;;;;4.65;0.60;;;21.00;91.30;;;;;;5090097;28;20036;-76
2023/10/30 12:45:12;;;;;;;3.78;0.63;;;21.10;91.70;;;;;;5089671;28;20125;-76
2023/10/30 12:47:42;;;;;;;2.33;0.55;;;21.10;91.50;;;;;;5090070;28;20519;-75
2023/10/30 12:50:08;;;;;;;3.80;0.70;;;21.20;90.60;;;;;;5089710;28;20496;-76
2023/10/30 12:52:34;;;;;;;4.85;0.68;;;21.20;90.10;;;;;;5090974;28;20024;-77
2023/10/30 12:55:00;;;;;;;5.07;0.85;;;21.30;89.30;;;;;;5090697;28;20135;-76
2023/10/30 12:57:26;;;;;;;5.07;0.70;;;21.30;89.70;;;;;;5089530;28;20047;-76
2023/10/30 12:59:52;;;;;;;2.55;0.40;;;21.30;89.70;;;;;;5090657;28;20028;-75